»·PEaware :: N822JH KSBP-KSBP

N822JH :: KSBP-KSBP

FLIGHT INFORMATION

Flight Status: Arrived
Operator: Privately registered:
United States
More flights under this callsign
Pilot: Aleksandr Z. (18023)
Aircraft: PIPER PA-24 COMMANCHE
(PA24)
More flights by this aircraft type
Origin: KSBP San Luis Co Regl
United States
Destination: KSBP San Luis Co Regl
United States
More flights between these airports :: More routes between these airports
Route: +
File this flight plan on PilotEdge
Remarks: Pattern work, I have my own weather.
Altitude:
(Current/Filed)
1,200ft
Speed:
(Current/Filed)
100kts
Departed: 04-Feb-19 09:25 AM
Arrived: 04-Feb-19 09:48 AM
Distance/Time
Traveled:
0nm/0:23
Distance/Time
To Go:
Arrived

Flight Plot

Page will automatically refresh every two minutes.


Map Options




Map Legend


Flown Route
Filed Route
Departure Airport
Arrival Airport
Navaid (VOR, NDB)
Fix

Horizontal Profiles

Position Reports

Time Latitude Longitude Heading Altitude Ground
Speed
04-Feb-19 09:08 35.238144 -120.636911 89 215ft 0kts
04-Feb-19 09:09 35.238144 -120.636911 89 215ft 0kts
04-Feb-19 09:10 35.238144 -120.636911 89 215ft 0kts
04-Feb-19 09:11 35.238144 -120.636911 89 215ft 0kts
04-Feb-19 09:12 35.238144 -120.636911 89 215ft 0kts
04-Feb-19 09:13 35.238144 -120.636905 89 215ft 0kts
04-Feb-19 09:14 35.238144 -120.636900 89 215ft 0kts
04-Feb-19 09:15 35.238144 -120.636895 89 215ft 0kts
04-Feb-19 09:16 35.238144 -120.636890 89 215ft 0kts
04-Feb-19 09:17 35.238144 -120.636886 89 215ft 0kts
04-Feb-19 09:18 35.238144 -120.636881 89 215ft 0kts
04-Feb-19 09:19 35.237530 -120.637552 234 215ft 10kts
04-Feb-19 09:20 35.236820 -120.638244 123 215ft 22kts
04-Feb-19 09:21 35.233206 -120.632581 214 215ft 0kts
04-Feb-19 09:23 35.233122 -120.632649 214 215ft 0kts
04-Feb-19 09:24 35.233085 -120.632682 215 215ft 3kts
04-Feb-19 09:25 35.240728 -120.646685 304 413ft 106kts
04-Feb-19 09:26 35.255577 -120.672211 291 1025ft 93kts
04-Feb-19 09:27 35.238286 -120.678480 127 1244ft 103kts
04-Feb-19 09:28 35.224914 -120.651930 122 1138ft 86kts
04-Feb-19 09:29 35.214741 -120.626493 122 1227ft 82kts
04-Feb-19 09:30 35.220951 -120.608610 304 866ft 86kts
04-Feb-19 09:31 35.232636 -120.632797 299 253ft 71kts
04-Feb-19 09:32 35.246115 -120.654824 310 734ft 95kts
04-Feb-19 09:33 35.242870 -120.677941 215 1323ft 86kts
04-Feb-19 09:34 35.226654 -120.663824 119 1021ft 87kts
04-Feb-19 09:35 35.215103 -120.636767 116 1190ft 92kts
04-Feb-19 09:36 35.204166 -120.609102 118 1150ft 83kts
04-Feb-19 09:37 35.214521 -120.600773 297 821ft 90kts
04-Feb-19 09:38 35.228046 -120.624698 299 468ft 80kts
04-Feb-19 09:39 35.239728 -120.645337 300 258ft 98kts
04-Feb-19 09:40 35.255231 -120.671768 299 934ft 89kts
04-Feb-19 09:40 35.246578 -120.689590 208 1241ft 88kts
04-Feb-19 09:42 35.228351 -120.673696 126 1146ft 83kts
04-Feb-19 09:43 35.217147 -120.647340 119 1212ft 89kts
04-Feb-19 09:43 35.208025 -120.623730 114 1169ft 96kts
04-Feb-19 09:44 35.198387 -120.595696 75 1138ft 89kts
04-Feb-19 09:46 35.218856 -120.608571 298 870ft 81kts
04-Feb-19 09:47 35.231530 -120.630920 301 278ft 75kts
04-Feb-19 09:47 35.236721 -120.639967 306 215ft 13kts
04-Feb-19 09:48 35.237524 -120.639998 17 215ft 0kts
04-Feb-19 09:50 35.237544 -120.639991 17 215ft 3kts
04-Feb-19 09:50 35.235921 -120.636645 113 215ft 9kts
04-Feb-19 09:51 35.236330 -120.636619 41 215ft 0kts
04-Feb-19 09:52 35.236333 -120.636615 41 215ft 0kts
04-Feb-19 09:53 35.236333 -120.636615 41 215ft 0kts
04-Feb-19 09:54 35.236333 -120.636615 41 215ft 0kts
04-Feb-19 09:55 35.236333 -120.636615 41 215ft 0kts
04-Feb-19 09:56 35.236333 -120.636615 41 215ft 0kts
04-Feb-19 09:57 35.236333 -120.636615 41 215ft 0kts
04-Feb-19 09:58 35.236333 -120.636615 41 215ft 0kts

Navigation Log

Ident Type
Flight plan parsing failed, navigation log unavailable